EWG62K LIPE-EDDL
Flight info
| Callsign | EWG62K |
|---|---|
| Flight time | N/A |
| Altitude | 38000 |
| Route | LUMAV1K/12 LUMAV DCT KOPER DCT VIC DCT SUMIR DCT UNIMI DCT MOGTI DCT KPT L608 TEDGO/N0428F370 DCT HAREM DCT LOHRE/N0433F380 Z850 ARPEG/N0372F240 Z850 ADEMI T854 DOMUX DOMUX1A |
| Aircraft | A319/M-SDE3FGHIRWY/LB1 |
Departure
| Time | N/A |
|---|---|
| Airport | Bologna Guglielmo Marconi Airport (LIPE) |
Arrival
| Time | 2026-05-03 20:45 |
|---|---|
| Airport | Düsseldorf Airport (EDDL) |
| Time | Latitude | Longitude | Altitude | Speed | Heading |
|---|---|---|---|---|---|
| 2026-05-03 20:15 | 49.83339 | 9.25961 | 38001 ft | 442 kts | 338° |
| 2026-05-03 20:15 | 49.90284 | 9.22411 | 37989 ft | 442 kts | 338° |
| 2026-05-03 20:16 | 49.96031 | 9.19461 | 37811 ft | 443 kts | 338° |
| 2026-05-03 20:16 | 49.98959 | 9.17954 | 37531 ft | 444 kts | 338° |
| 2026-05-03 20:16 | 50.01895 | 9.16443 | 37255 ft | 445 kts | 338° |
| 2026-05-03 20:16 | 50.04878 | 9.14908 | 36993 ft | 446 kts | 338° |
| 2026-05-03 20:17 | 50.07803 | 9.13401 | 36741 ft | 448 kts | 338° |
| 2026-05-03 20:17 | 50.10725 | 9.11891 | 36399 ft | 444 kts | 338° |
| 2026-05-03 20:17 | 50.12879 | 9.10773 | 36056 ft | 443 kts | 338° |
| 2026-05-03 20:17 | 50.16612 | 9.08833 | 35452 ft | 441 kts | 338° |
| 2026-05-03 20:18 | 50.19046 | 9.07570 | 35074 ft | 440 kts | 338° |
| 2026-05-03 20:18 | 50.21385 | 9.06354 | 34684 ft | 439 kts | 338° |
| 2026-05-03 20:18 | 50.24334 | 9.04821 | 34201 ft | 438 kts | 338° |
| 2026-05-03 20:18 | 50.27044 | 9.03409 | 33708 ft | 437 kts | 338° |
| 2026-05-03 20:19 | 50.29942 | 9.01894 | 33224 ft | 434 kts | 338° |
| 2026-05-03 20:19 | 50.32832 | 9.00381 | 32722 ft | 432 kts | 337° |
| 2026-05-03 20:19 | 50.35750 | 8.98852 | 32220 ft | 429 kts | 337° |
| 2026-05-03 20:19 | 50.38501 | 8.97413 | 31766 ft | 427 kts | 337° |
| 2026-05-03 20:20 | 50.41434 | 8.95875 | 31270 ft | 425 kts | 337° |
| 2026-05-03 20:20 | 50.44138 | 8.94453 | 30826 ft | 423 kts | 337° |
| 2026-05-03 20:20 | 50.46952 | 8.92977 | 30360 ft | 420 kts | 337° |
| 2026-05-03 20:20 | 50.49695 | 8.91538 | 29909 ft | 418 kts | 336° |
| 2026-05-03 20:21 | 50.52429 | 8.89792 | 29467 ft | 408 kts | 327° |
| 2026-05-03 20:21 | 50.54753 | 8.87556 | 29085 ft | 398 kts | 317° |
| 2026-05-03 20:21 | 50.56931 | 8.84925 | 28699 ft | 393 kts | 316° |
| 2026-05-03 20:21 | 50.59170 | 8.82221 | 28309 ft | 390 kts | 316° |
| 2026-05-03 20:22 | 50.61306 | 8.79661 | 27935 ft | 387 kts | 317° |
| 2026-05-03 20:22 | 50.63400 | 8.77158 | 27561 ft | 384 kts | 317° |
| 2026-05-03 20:22 | 50.65635 | 8.74484 | 27167 ft | 380 kts | 316° |
| 2026-05-03 20:22 | 50.67593 | 8.72133 | 26821 ft | 377 kts | 316° |
| 2026-05-03 20:23 | 50.69684 | 8.69612 | 26434 ft | 373 kts | 316° |
| 2026-05-03 20:23 | 50.71735 | 8.67136 | 26073 ft | 369 kts | 316° |
| 2026-05-03 20:23 | 50.73766 | 8.64677 | 25677 ft | 366 kts | 316° |
| 2026-05-03 20:23 | 50.75774 | 8.62245 | 25306 ft | 363 kts | 316° |
| 2026-05-03 20:24 | 50.77788 | 8.59805 | 24914 ft | 361 kts | 316° |
| 2026-05-03 20:24 | 50.79762 | 8.57407 | 24527 ft | 359 kts | 316° |
| 2026-05-03 20:24 | 50.81734 | 8.55007 | 24134 ft | 357 kts | 316° |
| 2026-05-03 20:24 | 50.83722 | 8.52586 | 23724 ft | 356 kts | 316° |
| 2026-05-03 20:25 | 50.85729 | 8.50139 | 23277 ft | 354 kts | 316° |
| 2026-05-03 20:25 | 50.87623 | 8.47828 | 22903 ft | 351 kts | 315° |
| 2026-05-03 20:25 | 50.89696 | 8.45294 | 22448 ft | 349 kts | 315° |
| 2026-05-03 20:25 | 50.91459 | 8.43137 | 22088 ft | 346 kts | 315° |
| 2026-05-03 20:26 | 50.93366 | 8.40809 | 21687 ft | 343 kts | 316° |
| 2026-05-03 20:26 | 50.95572 | 8.38109 | 21215 ft | 340 kts | 315° |
| 2026-05-03 20:26 | 50.97131 | 8.36198 | 20895 ft | 339 kts | 316° |
| 2026-05-03 20:26 | 50.99014 | 8.33892 | 20495 ft | 337 kts | 316° |
| 2026-05-03 20:27 | 51.00886 | 8.31591 | 20099 ft | 333 kts | 314° |
| 2026-05-03 20:27 | 51.02072 | 8.29850 | 19804 ft | 327 kts | 306° |
| 2026-05-03 20:27 | 51.03983 | 8.26269 | 19304 ft | 322 kts | 303° |
| 2026-05-03 20:27 | 51.05406 | 8.23578 | 18924 ft | 320 kts | 304° |
| 2026-05-03 20:28 | 51.06837 | 8.20876 | 18521 ft | 319 kts | 304° |
| 2026-05-03 20:28 | 51.08325 | 8.18065 | 18093 ft | 317 kts | 304° |
| 2026-05-03 20:28 | 51.09716 | 8.15437 | 17695 ft | 315 kts | 304° |
| 2026-05-03 20:28 | 51.11069 | 8.12878 | 17325 ft | 313 kts | 304° |
| 2026-05-03 20:29 | 51.12539 | 8.10094 | 16920 ft | 311 kts | 304° |
| 2026-05-03 20:29 | 51.13666 | 8.07955 | 16637 ft | 309 kts | 304° |
| 2026-05-03 20:29 | 51.14820 | 8.05756 | 16297 ft | 307 kts | 304° |
| 2026-05-03 20:29 | 51.16230 | 8.03077 | 15908 ft | 305 kts | 304° |
| 2026-05-03 20:30 | 51.17640 | 8.00400 | 15522 ft | 303 kts | 304° |
| 2026-05-03 20:30 | 51.19002 | 7.97815 | 15152 ft | 302 kts | 304° |
| 2026-05-03 20:30 | 51.20275 | 7.95395 | 14802 ft | 300 kts | 304° |
| 2026-05-03 20:30 | 51.21700 | 7.92685 | 14410 ft | 299 kts | 304° |
| 2026-05-03 20:31 | 51.22987 | 7.90222 | 14058 ft | 298 kts | 304° |
| 2026-05-03 20:31 | 51.24314 | 7.87679 | 13671 ft | 297 kts | 304° |
| 2026-05-03 20:31 | 51.25713 | 7.84995 | 13262 ft | 295 kts | 305° |
| 2026-05-03 20:31 | 51.26931 | 7.82660 | 12919 ft | 293 kts | 305° |
| 2026-05-03 20:32 | 51.28263 | 7.80110 | 12542 ft | 291 kts | 305° |
| 2026-05-03 20:32 | 51.29540 | 7.77661 | 12186 ft | 289 kts | 305° |
| 2026-05-03 20:32 | 51.30889 | 7.75069 | 11806 ft | 287 kts | 305° |
| 2026-05-03 20:32 | 51.32159 | 7.72624 | 11459 ft | 285 kts | 305° |
| 2026-05-03 20:33 | 51.33406 | 7.70219 | 11103 ft | 284 kts | 305° |
| 2026-05-03 20:33 | 51.34666 | 7.67789 | 10732 ft | 283 kts | 306° |
| 2026-05-03 20:33 | 51.35926 | 7.65357 | 10390 ft | 283 kts | 306° |
| 2026-05-03 20:33 | 51.37177 | 7.62939 | 10029 ft | 282 kts | 306° |
| 2026-05-03 20:34 | 51.38449 | 7.60482 | 9642 ft | 281 kts | 306° |
| 2026-05-03 20:34 | 51.39672 | 7.58121 | 9297 ft | 279 kts | 306° |
| 2026-05-03 20:34 | 51.40981 | 7.55562 | 8929 ft | 275 kts | 302° |
| 2026-05-03 20:34 | 51.41877 | 7.53008 | 8596 ft | 268 kts | 288° |
| 2026-05-03 20:35 | 51.42372 | 7.50137 | 8249 ft | 263 kts | 277° |
| 2026-05-03 20:35 | 51.42682 | 7.47277 | 7916 ft | 264 kts | 279° |
| 2026-05-03 20:35 | 51.43409 | 7.44552 | 7593 ft | 272 kts | 297° |
| 2026-05-03 20:35 | 51.44397 | 7.41969 | 7272 ft | 271 kts | 298° |
| 2026-05-03 20:36 | 51.45413 | 7.39381 | 6946 ft | 270 kts | 298° |
| 2026-05-03 20:36 | 51.46407 | 7.36855 | 6631 ft | 269 kts | 298° |
| 2026-05-03 20:36 | 51.47394 | 7.34346 | 6318 ft | 268 kts | 298° |
| 2026-05-03 20:36 | 51.48407 | 7.31775 | 6043 ft | 267 kts | 298° |
| 2026-05-03 20:37 | 51.49355 | 7.29299 | 5755 ft | 264 kts | 294° |
| 2026-05-03 20:37 | 51.49946 | 7.26401 | 5458 ft | 258 kts | 276° |
| 2026-05-03 20:37 | 51.49956 | 7.23702 | 5162 ft | 254 kts | 260° |
| 2026-05-03 20:37 | 51.49357 | 7.20717 | 4808 ft | 246 kts | 241° |
| 2026-05-03 20:38 | 51.48540 | 7.18778 | 4602 ft | 233 kts | 233° |
| 2026-05-03 20:38 | 51.47590 | 7.16754 | 4374 ft | 223 kts | 233° |
| 2026-05-03 20:38 | 51.46669 | 7.14784 | 4138 ft | 217 kts | 233° |
| 2026-05-03 20:38 | 51.45779 | 7.12885 | 3908 ft | 204 kts | 233° |
| 2026-05-03 20:39 | 51.44961 | 7.11142 | 3668 ft | 192 kts | 233° |
| 2026-05-03 20:39 | 51.44184 | 7.09488 | 3663 ft | 185 kts | 233° |
| 2026-05-03 20:39 | 51.43389 | 7.07797 | 3659 ft | 184 kts | 233° |
| 2026-05-03 20:39 | 51.42889 | 7.06735 | 3655 ft | 184 kts | 234° |
| 2026-05-03 20:40 | 51.41850 | 7.04526 | 3664 ft | 184 kts | 233° |
| 2026-05-03 20:40 | 51.41063 | 7.02856 | 3664 ft | 177 kts | 233° |
| 2026-05-03 20:40 | 51.40360 | 7.01365 | 3608 ft | 169 kts | 233° |
| 2026-05-03 20:40 | 51.39661 | 6.99883 | 3453 ft | 166 kts | 233° |
| 2026-05-03 20:41 | 51.38961 | 6.98399 | 3258 ft | 164 kts | 233° |
| 2026-05-03 20:41 | 51.38287 | 6.96972 | 3044 ft | 162 kts | 233° |
| 2026-05-03 20:41 | 51.37610 | 6.95540 | 2824 ft | 160 kts | 233° |
| 2026-05-03 20:41 | 51.36943 | 6.94129 | 2652 ft | 156 kts | 233° |
| 2026-05-03 20:42 | 51.36297 | 6.92763 | 2402 ft | 151 kts | 234° |
| 2026-05-03 20:42 | 51.35668 | 6.91435 | 2188 ft | 143 kts | 233° |
| 2026-05-03 20:42 | 51.35084 | 6.90201 | 2010 ft | 136 kts | 232° |
| 2026-05-03 20:42 | 51.34514 | 6.88997 | 1820 ft | 131 kts | 232° |
| 2026-05-03 20:43 | 51.34239 | 6.88416 | 1743 ft | 127 kts | 232° |
| 2026-05-03 20:43 | 51.33475 | 6.86804 | 1481 ft | 120 kts | 232° |
| 2026-05-03 20:43 | 51.33143 | 6.86104 | 1385 ft | 119 kts | 232° |
| 2026-05-03 20:43 | 51.32476 | 6.84699 | 1184 ft | 118 kts | 231° |
| 2026-05-03 20:44 | 51.31977 | 6.83647 | 1022 ft | 118 kts | 231° |
| 2026-05-03 20:44 | 51.31633 | 6.82925 | 909 ft | 119 kts | 230° |
| 2026-05-03 20:44 | 51.31071 | 6.81746 | 731 ft | 126 kts | 229° |
| 2026-05-03 20:44 | 51.30476 | 6.80474 | 541 ft | 130 kts | 230° |
| 2026-05-03 20:45 | 51.30365 | 6.80248 | 487 ft | 131 kts | 230° |
| 2026-05-03 20:45 | 51.29600 | 6.78636 | 245 ft | 130 kts | 231° |
| 2026-05-03 20:45 | 51.28924 | 6.77227 | 127 ft | 97 kts | 233° |
| 2026-05-03 20:45 | 51.28642 | 6.76626 | 131 ft | 49 kts | 232° |
| 2026-05-03 20:46 | 51.28416 | 6.76162 | 127 ft | 42 kts | 231° |
| 2026-05-03 20:46 | 51.28295 | 6.76039 | 127 ft | 9 kts | 192° |
| 2026-05-03 20:46 | 51.28209 | 6.76054 | 128 ft | 15 kts | 147° |
| 2026-05-03 20:46 | 51.28132 | 6.76037 | 130 ft | 14 kts | 225° |
| 2026-05-03 20:47 | 51.28089 | 6.75938 | 126 ft | 18 kts | 236° |
| 2026-05-03 20:47 | 51.27991 | 6.75824 | 129 ft | 19 kts | 184° |
| 2026-05-03 20:47 | 51.27852 | 6.75850 | 130 ft | 17 kts | 129° |
| 2026-05-03 20:47 | 51.27843 | 6.76016 | 131 ft | 17 kts | 91° |
| 2026-05-03 20:48 | 51.27857 | 6.76177 | 128 ft | 9 kts | 42° |
| 2026-05-03 20:48 | 51.27895 | 6.76237 | 131 ft | 9 kts | 45° |
| 2026-05-03 20:48 | 51.27906 | 6.76254 | 129 ft | 1 kts | 44° |